Time;durP1;ratioP1;P1;durP2;ratioP2;P2;SDS_P1;SDS_P2;PMS_P1;PMS_P2;Temp;Humidity;BMP_temperature;BMP_pressure;BME280_temperature;BME280_humidity;BME280_pressure;Samples;Min_cycle;Max_cycle;Signal;HPM_P1;HPM_P2
2021/07/19 02:51:31;;;;;;;14.70;9.65;;;14.90;99.90;;;;;;174985;28;39017189;-88
2021/07/19 02:54:45;;;;;;;;;;;14.90;99.90;;;;;;5;38265042;39016143;-89
2021/07/19 02:57:58;;;;;;;;;;;14.90;99.90;;;;;;5;36014461;39016541;-88
2021/07/19 03:01:11;;;;;;;;;;;14.90;99.90;;;;;;5;36014356;39016897;-89
2021/07/19 03:04:22;;;;;;;;;;;14.80;99.90;;;;;;5;36014407;39016835;-88
2021/07/19 03:07:32;;;;;;;;;;;14.90;99.90;;;;;;5;36018039;39016525;-88
2021/07/19 03:10:46;;;;;;;;;;;14.80;99.90;;;;;;5;36013646;39017128;-88
2021/07/19 03:14:00;;;;;;;;;;;14.70;99.90;;;;;;5;36014641;39015479;-88
2021/07/19 03:17:11;;;;;;;;;;;14.70;99.90;;;;;;5;36015839;39016108;-88
2021/07/19 03:20:20;;;;;;;;;;;14.70;99.90;;;;;;5;36014064;39016764;-88
2021/07/19 03:23:33;;;;;;;;;;;14.70;99.90;;;;;;5;36013941;39018143;-88
2021/07/19 03:26:45;;;;;;;;;;;14.60;99.90;;;;;;5;36013912;39016703;-88
2021/07/19 03:29:57;;;;;;;;;;;14.50;99.90;;;;;;5;36015049;39016624;-88
2021/07/19 03:33:06;;;;;;;;;;;14.50;99.90;;;;;;5;36014482;39016339;-88
2021/07/19 03:36:18;;;;;;;;;;;14.50;99.90;;;;;;5;36014222;39016111;-87
2021/07/19 03:39:31;;;;;;;;;;;14.50;99.90;;;;;;5;36014753;39016090;-88
2021/07/19 03:42:42;;;;;;;;;;;14.60;99.90;;;;;;5;36014710;39016575;-88
2021/07/19 03:45:51;;;;;;;;;;;14.60;99.90;;;;;;5;36014661;39015822;-87
2021/07/19 03:49:05;;;;;;;;;;;14.60;99.90;;;;;;5;36015715;39017103;-88
2021/07/19 03:52:17;;;;;;;;;;;14.60;99.90;;;;;;5;36014564;39018045;-88
2021/07/19 03:55:29;;;;;;;;;;;14.60;99.90;;;;;;5;36014861;39016204;-88
2021/07/19 03:58:38;;;;;;;;;;;14.60;99.90;;;;;;5;36015122;39016950;-88
2021/07/19 04:01:51;;;;;;;;;;;14.60;99.90;;;;;;5;36014726;39016916;-88
2021/07/19 04:05:07;;;;;;;;;;;14.60;99.90;;;;;;5;36014914;39018819;-87
2021/07/19 04:08:19;;;;;;;;;;;14.60;99.90;;;;;;5;36014465;39015937;-88
2021/07/19 04:11:28;;;;;;;;;;;14.60;99.90;;;;;;5;36014420;39017803;-87
2021/07/19 04:14:41;;;;;;;;;;;14.60;99.90;;;;;;5;36014409;39017594;-88
2021/07/19 04:17:53;;;;;;;;;;;14.70;99.90;;;;;;5;36014341;39015476;-88
2021/07/19 04:21:04;;;;;;;;;;;14.70;99.90;;;;;;5;36014800;39016387;-87
2021/07/19 04:24:13;;;;;;;;;;;14.70;99.90;;;;;;5;36016766;39015970;-88
2021/07/19 04:27:25;;;;;;;;;;;14.70;99.90;;;;;;5;36014417;39016618;-87
2021/07/19 04:30:37;;;;;;;;;;;14.80;99.90;;;;;;5;36013739;39018101;-87
2021/07/19 04:33:49;;;;;;;;;;;14.80;99.90;;;;;;5;36014805;39015862;-87
2021/07/19 04:37:02;;;;;;;;;;;14.80;99.90;;;;;;5;36013928;39016373;-87
2021/07/19 04:40:14;;;;;;;;;;;14.90;99.90;;;;;;5;36015047;39019910;-86
2021/07/19 04:43:27;;;;;;;;;;;15.00;99.90;;;;;;5;36015144;39017200;-88
2021/07/19 04:46:38;;;;;;;;;;;15.00;99.90;;;;;;5;36014589;39016884;-88
2021/07/19 04:49:47;;;;;;;;;;;15.10;99.90;;;;;;5;36015288;39017341;-87
2021/07/19 04:52:59;;;;;;;;;;;15.20;99.90;;;;;;5;36014292;39016626;-87
2021/07/19 04:56:11;;;;;;;;;;;15.30;99.90;;;;;;5;36013882;39017404;-88
2021/07/19 04:59:23;;;;;;;;;;;15.40;99.90;;;;;;5;36015107;39016179;-87
2021/07/19 05:02:34;;;;;;;;;;;15.50;99.90;;;;;;5;36016762;39016370;-88
2021/07/19 05:05:46;;;;;;;;;;;15.60;99.90;;;;;;5;36015276;39018084;-87
2021/07/19 05:09:00;;;;;;;;;;;15.70;99.90;;;;;;5;36015472;39019499;-88
2021/07/19 05:12:11;;;;;;;;;;;15.70;99.90;;;;;;5;36013549;39020444;-88
2021/07/19 05:15:21;;;;;;;;;;;15.80;99.90;;;;;;5;36017080;39020989;-87
2021/07/19 05:18:33;;;;;;;;;;;15.90;99.90;;;;;;5;36014677;39021108;-87
2021/07/19 05:21:45;;;;;;;;;;;15.90;99.90;;;;;;5;36015478;39016385;-87
2021/07/19 05:24:57;;;;;;;;;;;16.00;99.90;;;;;;5;36014097;39016697;-87
2021/07/19 05:28:08;;;;;;;;;;;16.10;99.90;;;;;;5;36014962;39016718;-87
2021/07/19 05:31:20;;;;;;;;;;;16.20;99.90;;;;;;5;36013810;39016293;-88
2021/07/19 05:34:32;;;;;;;;;;;16.20;99.90;;;;;;5;36014780;39016140;-83
2021/07/19 05:37:43;;;;;;;;;;;16.30;99.90;;;;;;5;36014150;39016055;-88
2021/07/19 05:40:52;;;;;;;;;;;16.40;99.90;;;;;;5;36015236;39015251;-88
2021/07/19 05:44:04;;;;;;;;;;;16.60;99.90;;;;;;5;36015130;39017580;-88
2021/07/19 05:47:16;;;;;;;;;;;16.70;99.90;;;;;;5;36016873;39015724;-88
2021/07/19 05:50:27;;;;;;;;;;;16.80;99.90;;;;;;5;36015149;39016013;-88
2021/07/19 05:53:36;;;;;;;;;;;16.90;99.90;;;;;;5;36013832;39016632;-88
2021/07/19 05:56:48;;;;;;;;;;;17.10;99.90;;;;;;5;36016011;39016107;-88
2021/07/19 06:00:00;;;;;;;;;;;17.30;99.90;;;;;;5;36014185;39016822;-88
2021/07/19 06:03:11;;;;;;;;;;;17.40;99.90;;;;;;5;36014784;39015727;-88
2021/07/19 06:06:20;;;;;;;;;;;17.50;99.90;;;;;;5;36014077;39016716;-88
2021/07/19 06:09:32;;;;;;;;;;;17.60;99.90;;;;;;5;36013914;39017154;-84
2021/07/19 06:12:44;;;;;;;;;;;17.80;99.90;;;;;;5;36014118;39017764;-88
2021/07/19 06:15:55;;;;;;;;;;;17.90;99.90;;;;;;5;36013960;39015669;-88
2021/07/19 06:19:04;;;;;;;;;;;18.00;99.90;;;;;;5;36015650;39016010;-88
2021/07/19 06:22:16;;;;;;;;;;;18.20;99.90;;;;;;5;36014319;39016013;-87
2021/07/19 06:25:29;;;;;;;;;;;18.30;99.90;;;;;;5;36014881;39015467;-88
2021/07/19 06:28:41;;;;;;;;;;;18.40;99.90;;;;;;5;36014716;39015571;-88
2021/07/19 06:31:50;;;;;;;;;;;18.50;99.90;;;;;;5;36014683;39016575;-87
2021/07/19 06:35:02;;;;;;;;;;;18.60;99.90;;;;;;5;36013585;39015533;-84
2021/07/19 06:38:14;;;;;;;;;;;18.70;99.90;;;;;;5;36014509;39015207;-88
2021/07/19 06:41:25;;;;;;;;;;;18.80;99.90;;;;;;5;36013585;39018557;-88
2021/07/19 06:44:34;;;;;;;;;;;18.90;99.90;;;;;;5;36014163;39015943;-88
2021/07/19 06:47:46;;;;;;;;;;;19.00;99.90;;;;;;5;36013742;39016198;-86
2021/07/19 06:50:58;;;;;;;;;;;19.10;99.90;;;;;;5;36013975;39017185;-88
2021/07/19 06:54:09;;;;;;;;;;;19.10;99.90;;;;;;5;36014260;39016487;-88
2021/07/19 06:57:18;;;;;;;;;;;19.10;99.90;;;;;;5;36014185;39017243;-88
2021/07/19 07:00:30;;;;;;;;;;;19.20;99.90;;;;;;5;36014808;39016981;-89
2021/07/19 07:03:42;;;;;;;;;;;19.30;99.90;;;;;;5;36015241;39016875;-88
2021/07/19 07:06:53;;;;;;;;;;;19.40;99.90;;;;;;5;36015478;39016118;-89
2021/07/19 07:10:03;;;;;;;;;;;19.50;99.90;;;;;;5;36014870;39016494;-89
2021/07/19 07:13:15;;;;;;;;;;;19.70;99.90;;;;;;5;36014589;39017153;-88
2021/07/19 07:16:27;;;;;;;;;;;19.80;99.90;;;;;;5;36016460;39016867;-87
2021/07/19 07:19:38;;;;;;;;;;;19.90;99.90;;;;;;5;36014326;39017042;-86
2021/07/19 07:22:47;;;;;;;;;;;20.10;99.90;;;;;;5;36013609;39016704;-88
2021/07/19 07:25:59;;;;;;;;;;;20.20;99.90;;;;;;5;36014329;39016383;-88
2021/07/19 07:29:11;;;;;;;;;;;20.40;99.90;;;;;;5;36013823;39016272;-90
2021/07/19 07:32:22;;;;;;;;;;;20.60;99.90;;;;;;5;36014377;39016574;-90
2021/07/19 07:35:31;;;;;;;;;;;20.70;99.90;;;;;;5;36013941;39016452;-89
2021/07/19 07:38:43;;;;;;;;;;;20.90;99.90;;;;;;5;36013543;39015974;-89
2021/07/19 07:41:55;;;;;;;;;;;21.10;99.90;;;;;;5;36013887;39016831;-89
2021/07/19 07:45:07;;;;;;;;;;;21.10;99.90;;;;;;5;36014381;39015580;-90
2021/07/19 07:48:16;;;;;;;;;;;21.30;99.90;;;;;;5;36014041;39016027;-84
2021/07/19 07:51:28;;;;;;;;;;;21.40;99.90;;;;;;5;36014720;39015885;-89
2021/07/19 07:54:40;;;;;;;;;;;21.60;99.90;;;;;;5;36014284;39016123;-89
2021/07/19 07:57:51;;;;;;;;;;;21.70;99.90;;;;;;5;36015637;39017235;-89
2021/07/19 08:01:00;;;;;;;;;;;21.90;99.90;;;;;;5;36013841;39016734;-88
2021/07/19 08:04:12;;;;;;;;;;;22.00;99.90;;;;;;5;36013745;39019025;-88
2021/07/19 08:07:24;;;;;;;;;;;22.20;99.90;;;;;;5;36016742;39016920;-88
2021/07/19 08:10:36;;;;;;;;;;;22.30;99.90;;;;;;5;36015179;39017205;-89
2021/07/19 08:13:46;;;;;;;;;;;22.40;98.70;;;;;;5;36013898;39017310;-88
2021/07/19 08:16:58;;;;;;;;;;;22.70;98.40;;;;;;5;36014299;39017215;-89
2021/07/19 08:20:12;;;;;;;;;;;22.80;98.10;;;;;;5;36015293;39016889;-89
2021/07/19 08:23:26;;;;;;;;;;;23.10;97.70;;;;;;5;36013735;39766441;-88
2021/07/19 08:26:36;;;;;;;;;;;23.30;98.60;;;;;;5;36014045;39016767;-89
2021/07/19 08:29:49;;;;;;;;;;;23.50;97.00;;;;;;5;36014133;39016104;-88
2021/07/19 08:33:02;;;;;;;;;;;23.70;96.10;;;;;;5;36015303;39016797;-88
2021/07/19 08:36:15;;;;;;;;;;;23.90;95.20;;;;;;5;36015395;39016269;-88
2021/07/19 08:39:24;;;;;;;;;;;24.10;95.90;;;;;;5;36015994;39017113;-88
2021/07/19 08:42:38;;;;;;;;;;;24.60;95.40;;;;;;5;36013977;39015844;-89
2021/07/19 08:45:50;;;;;;;;;;;24.90;93.30;;;;;;5;36015108;39016903;-89
2021/07/19 08:49:07;;;;;;;;;;;25.30;91.90;;;;;;5;36013596;39017049;-89
2021/07/19 08:52:16;;;;;;;;;;;25.90;91.00;;;;;;5;36013856;39016682;-90
2021/07/19 08:55:31;;;;;;;;;;;26.30;91.80;;;;;;5;36015027;39765943;-88
2021/07/19 08:58:44;;;;;;;;;;;27.00;92.50;;;;;;5;36014205;39016745;-89
2021/07/19 09:02:00;;;;;;;;;;;27.90;91.00;;;;;;5;36013637;39016403;-90
2021/07/19 09:05:10;;;;;;;;;;;28.80;89.20;;;;;;5;36014507;39015469;-90
2021/07/19 09:08:22;;;;;;;;;;;30.50;82.80;;;;;;5;36015370;39016753;-90
2021/07/19 09:11:35;;;;;;;;;;;32.00;77.40;;;;;;5;36014198;39016299;-88
2021/07/19 09:14:48;;;;;;;;;;;33.40;70.20;;;;;;5;36014373;39017165;-90
2021/07/19 09:17:58;;;;;;;;;;;34.20;66.00;;;;;;5;36018536;39016658;-89
2021/07/19 09:21:30;;;;;;;;;;;35.40;61.30;;;;;;5;36015103;39017626;-89
2021/07/19 09:24:43;;;;;;;;;;;36.60;57.10;;;;;;5;36013894;39016972;-90
2021/07/19 09:28:01;;;;;;;;;;;37.50;55.30;;;;;;5;36016072;39766840;-90
2021/07/19 09:31:11;;;;;;;;;;;38.30;51.90;;;;;;5;36015050;39016446;-89
2021/07/19 09:34:24;;;;;;;;;;;39.30;49.60;;;;;;5;36015289;39016317;-88
2021/07/19 09:37:40;;;;;;;;;;;40.00;47.90;;;;;;5;36013677;39015317;-90
2021/07/19 09:40:56;;;;;;;;;;;39.70;47.70;;;;;;5;36013705;39015800;-88
2021/07/19 09:44:07;;;;;;;;;;;40.90;45.60;;;;;;5;36018280;39015716;-91
2021/07/19 09:47:30;;;;;;;;;;;41.50;43.60;;;;;;5;36015416;39016250;-88
2021/07/19 09:50:47;;;;;;;;;;;42.40;41.50;;;;;;5;36014985;39016656;-90
2021/07/19 09:54:10;;;;;;;;;;;42.30;41.00;;;;;;5;36014981;39017288;-89
2021/07/19 09:57:22;;;;;;;;;;;42.90;40.10;;;;;;5;36015841;39017484;-89
2021/07/19 10:00:45;;;;;;;;;;;43.10;40.00;;;;;;5;36014921;39766229;-89
2021/07/19 10:04:04;;;;;;;;;;;44.10;39.20;;;;;;5;36016649;39018491;-89
2021/07/19 10:07:22;;;;;;;;;;;45.20;37.60;;;;;;5;36014563;39017287;-89
2021/07/19 10:10:35;;;;;;;;;;;45.20;37.50;;;;;;5;36015619;39016737;-87
2021/07/19 10:13:49;;;;;;;;;;;46.10;35.90;;;;;;5;36014065;39017145;-86
2021/07/19 10:17:04;;;;;;;;;;;46.30;35.10;;;;;;5;36014778;39018260;-89
2021/07/19 10:20:17;;;;;;;;;;;46.60;34.70;;;;;;5;36016491;39017650;-87
2021/07/19 10:23:27;;;;;;;;;;;46.90;34.80;;;;;;5;36014818;39017196;-87
2021/07/19 10:26:39;;;;;;;;;;;47.30;34.40;;;;;;5;36014239;39017132;-89
2021/07/19 10:29:52;;;;;;;;;;;47.60;33.70;;;;;;5;36015410;39016541;-86
2021/07/19 10:33:06;;;;;;;;;;;48.30;34.10;;;;;;5;36014447;39766765;-87
2021/07/19 10:36:21;;;;;;;;;;;48.10;33.50;;;;;;5;36015864;39017025;-88
2021/07/19 10:39:35;;;;;;;;;;;48.00;33.30;;;;;;5;36015395;39018077;-87
2021/07/19 10:42:48;;;;;;;;;;;47.20;34.10;;;;;;5;36015013;39017276;-88
2021/07/19 10:46:08;;;;;;;;;;;47.00;34.20;;;;;;5;36015695;39017454;-89
2021/07/19 10:49:20;;;;;;;;;;;46.80;34.40;;;;;;5;36015240;39017111;-87
2021/07/19 10:52:33;;;;;;;;;;;46.40;34.70;;;;;;5;36015388;39018310;-87
2021/07/19 10:59:06;;;;;;;;;;;45.70;35.90;;;;;;5;36018432;39019321;-88
2021/07/19 11:02:25;;;;;;;;;;;46.50;34.80;;;;;;5;36016119;39018169;-89
2021/07/19 11:05:40;;;;;;;;;;;46.50;34.80;;;;;;5;36015025;39769012;-88
2021/07/19 11:08:53;;;;;;;;;;;46.10;35.00;;;;;;5;36014782;39016362;-88
2021/07/19 11:12:07;;;;;;;;;;;46.50;35.70;;;;;;5;36014723;39016128;-88
2021/07/19 11:15:21;;;;;;;;;;;47.10;34.70;;;;;;5;36016501;39018227;-88
2021/07/19 11:18:34;;;;;;;;;;;46.70;35.00;;;;;;5;36015059;39018584;-88
2021/07/19 11:21:48;;;;;;;;;;;47.20;35.00;;;;;;5;36014921;39016770;-88
2021/07/19 11:25:08;;;;;;;;;;;47.60;34.60;;;;;;5;36014115;39016867;-88
2021/07/19 11:28:21;;;;;;;;;;;48.10;34.50;;;;;;5;36015780;39017238;-89
2021/07/19 11:31:34;;;;;;;;;;;48.30;33.60;;;;;;5;36014545;39016482;-88
2021/07/19 11:34:47;;;;;;;;;;;47.80;33.50;;;;;;5;36015315;39017112;-88
2021/07/19 11:38:12;;;;;;;;;;;46.60;34.70;;;;;;5;36015110;39766269;-88
2021/07/19 11:41:23;;;;;;;;;;;47.20;34.80;;;;;;5;36015651;39015787;-88
2021/07/19 11:44:37;;;;;;;;;;;46.90;34.60;;;;;;5;36015180;39016746;-87
2021/07/19 11:47:51;;;;;;;;;;;46.50;34.60;;;;;;5;36015790;39016588;-88
2021/07/19 11:51:04;;;;;;;;;;;45.60;35.70;;;;;;5;36014202;39016397;-89
2021/07/19 11:54:14;;;;;;;;;;;46.40;35.40;;;;;;5;36015600;39016354;-88
2021/07/19 11:57:27;;;;;;;;;;;46.80;34.60;;;;;;5;36015795;39016919;-88
2021/07/19 12:00:41;;;;;;;;;;;46.60;34.40;;;;;;5;36014477;39016963;-86
2021/07/19 12:03:55;;;;;;;;;;;45.40;35.30;;;;;;5;36015175;39016943;-88
2021/07/19 12:07:05;;;;;;;;;;;46.00;34.60;;;;;;5;36016133;39016904;-88
2021/07/19 12:10:20;;;;;;;;;;;46.00;34.70;;;;;;5;36015311;39767165;-88
2021/07/19 12:13:36;;;;;;;;;;;46.40;34.70;;;;;;5;36013516;39016941;-88
2021/07/19 12:16:49;;;;;;;;;;;46.20;35.00;;;;;;5;36014113;39016460;-88
2021/07/19 12:19:59;;;;;;;;;;;46.20;34.50;;;;;;5;36014757;39016972;-88
2021/07/19 12:23:11;;;;;;;;;;;46.20;35.10;;;;;;5;36014938;39016886;-88
2021/07/19 12:26:30;;;;;;;;;;;46.30;34.70;;;;;;5;36015516;39017877;-87
2021/07/19 12:29:43;;;;;;;;;;;45.60;34.50;;;;;;5;36014291;39016244;-87
2021/07/19 12:32:53;;;;;;;;;;;45.80;34.10;;;;;;5;36014991;39016932;-90
2021/07/19 12:36:06;;;;;;;;;;;45.40;34.20;;;;;;5;36014436;39016662;-89
2021/07/19 12:39:31;;;;;;;;;;;44.60;35.80;;;;;;5;36013863;39016356;-90
2021/07/19 12:42:46;;;;;;;;;;;44.70;34.50;;;;;;5;36014049;39766760;-90
2021/07/19 12:45:56;;;;;;;;;;;44.10;35.70;;;;;;5;36014555;39017222;-91
2021/07/19 12:49:09;;;;;;;;;;;44.30;35.30;;;;;;5;36015442;39017286;-89
2021/07/19 12:52:23;;;;;;;;;;;44.00;35.20;;;;;;5;36015102;39017820;-89
2021/07/19 12:55:35;;;;;;;;;;;43.50;35.30;;;;;;5;36013826;39016991;-90
2021/07/19 12:58:52;;;;;;;;;;;42.80;36.00;;;;;;5;36014207;39016855;-89
2021/07/19 13:02:05;;;;;;;;;;;41.70;37.60;;;;;;5;36014238;39017522;-89
2021/07/19 13:05:19;;;;;;;;;;;41.90;37.40;;;;;;5;36015440;39016829;-88
2021/07/19 13:08:32;;;;;;;;;;;42.60;36.90;;;;;;5;36014177;39016520;-88
2021/07/19 13:11:43;;;;;;;;;;;42.60;35.80;;;;;;5;36014085;39018858;-88
2021/07/19 13:15:01;;;;;;;;;;;42.70;36.80;;;;;;5;36013342;39767226;-88
2021/07/19 13:18:14;;;;;;;;;;;42.40;37.00;;;;;;5;36015595;39017041;-89
2021/07/19 13:21:26;;;;;;;;;;;42.50;36.40;;;;;;5;36015320;39016058;-88
2021/07/19 13:24:47;;;;;;;;;;;42.10;37.90;;;;;;5;36014042;39016944;-85
2021/07/19 13:28:00;;;;;;;;;;;42.20;37.20;;;;;;5;36014684;39016239;-89
2021/07/19 13:31:12;;;;;;;;;;;41.40;37.40;;;;;;5;36014322;39016975;-89
2021/07/19 13:34:25;;;;;;;;;;;41.30;36.90;;;;;;5;36015527;39016602;-89
2021/07/19 13:37:35;;;;;;;;;;;41.10;38.10;;;;;;5;36014551;39015979;-88
2021/07/19 13:40:52;;;;;;;;;;;41.40;37.30;;;;;;5;36013866;39016574;-89
2021/07/19 13:44:05;;;;;;;;;;;41.60;37.30;;;;;;5;36013806;39015785;-87
2021/07/19 13:47:19;;;;;;;;;;;41.00;37.30;;;;;;5;36013487;39766102;-89
2021/07/19 13:50:29;;;;;;;;;;;40.20;38.50;;;;;;5;36015092;39017694;-87
2021/07/19 13:53:41;;;;;;;;;;;39.90;38.80;;;;;;5;36013770;39015786;-85
2021/07/19 13:56:55;;;;;;;;;;;39.10;39.60;;;;;;5;36013412;39015924;-85
2021/07/19 14:00:09;;;;;;;;;;;39.40;39.90;;;;;;5;36014631;39017822;-90
2021/07/19 14:03:18;;;;;;;;;;;38.80;40.70;;;;;;5;36013259;39017637;-90
2021/07/19 14:06:31;;;;;;;;;;;38.40;40.00;;;;;;5;36015144;39017832;-90
2021/07/19 14:09:44;;;;;;;;;;;37.60;41.40;;;;;;5;36013054;39015734;-90
2021/07/19 14:12:56;;;;;;;;;;;37.50;40.90;;;;;;5;36013019;39015693;-90
2021/07/19 14:16:06;;;;;;;;;;;37.40;41.60;;;;;;5;36013393;39015199;-90
2021/07/19 14:19:20;;;;;;;;;;;37.00;42.50;;;;;;5;36013316;39765942;-89
2021/07/19 14:22:35;;;;;;;;;;;37.00;42.10;;;;;;5;36013507;39015817;-89
2021/07/19 14:25:47;;;;;;;;;;;36.90;42.20;;;;;;5;36013227;39015695;-90
2021/07/19 14:28:57;;;;;;;;;;;36.50;42.50;;;;;;5;36014437;39016154;-89
2021/07/19 14:32:10;;;;;;;;;;;36.40;43.10;;;;;;5;36014038;39015920;-89
2021/07/19 14:35:23;;;;;;;;;;;35.80;43.10;;;;;;5;36014070;39016008;-90
2021/07/19 14:38:35;;;;;;;;;;;35.60;43.60;;;;;;5;36013774;39015013;-89
2021/07/19 14:41:45;;;;;;;;;;;35.60;44.50;;;;;;5;36014505;39015222;-89
2021/07/19 14:44:58;;;;;;;;;;;35.40;43.70;;;;;;5;36013204;39015354;-90
2021/07/19 14:48:10;;;;;;;;;;;35.30;43.40;;;;;;5;36014122;39016211;-89
2021/07/19 14:51:24;;;;;;;;;;;35.10;42.80;;;;;;5;36013830;39764918;-90
2021/07/19 14:54:34;;;;;;;;;;;34.60;44.00;;;;;;5;36013065;39016066;-89
2021/07/19 14:57:47;;;;;;;;;;;34.60;43.60;;;;;;5;36013454;39016324;-89
2021/07/19 15:01:00;;;;;;;;;;;34.60;44.30;;;;;;5;36013525;39016145;-90
2021/07/19 15:04:13;;;;;;;;;;;34.40;42.80;;;;;;5;36015448;39022856;-90
2021/07/19 15:07:23;;;;;;;;;;;34.30;43.30;;;;;;5;36013150;39015391;-90
2021/07/19 15:10:35;;;;;;;;;;;34.30;44.10;;;;;;5;36014309;39015310;-90
2021/07/19 15:13:48;;;;;;;;;;;34.30;43.70;;;;;;5;36013871;39015430;-90
2021/07/19 15:17:01;;;;;;;;;;;34.10;44.10;;;;;;5;36014914;39014828;-90
2021/07/19 15:20:11;;;;;;;;;;;33.90;44.50;;;;;;5;36013839;39015838;-91
2021/07/19 15:23:25;;;;;;;;;;;33.60;44.10;;;;;;5;36013633;39765549;-90
2021/07/19 15:26:37;;;;;;;;;;;33.40;45.10;;;;;;5;36014485;39015295;-90
2021/07/19 15:29:50;;;;;;;;;;;33.20;45.50;;;;;;5;36014903;39014830;-90
2021/07/19 15:33:00;;;;;;;;;;;33.10;45.80;;;;;;5;36013861;39015947;-90
2021/07/19 15:36:12;;;;;;;;;;;33.10;46.10;;;;;;5;36013043;39015371;-89
2021/07/19 15:39:25;;;;;;;;;;;33.20;46.10;;;;;;5;36013438;39014800;-90
2021/07/19 15:42:38;;;;;;;;;;;33.10;47.10;;;;;;5;36014754;39015058;-90
2021/07/19 15:45:47;;;;;;;;;;;33.00;45.50;;;;;;5;36013402;39015541;-90
2021/07/19 15:49:00;;;;;;;;;;;32.70;45.90;;;;;;5;36013885;39016788;-90
2021/07/19 15:52:13;;;;;;;;;;;32.50;45.60;;;;;;5;36015686;39015615;-90
2021/07/19 15:55:27;;;;;;;;;;;32.30;46.90;;;;;;5;36013236;39765379;-90
2021/07/19 15:58:37;;;;;;;;;;;32.30;47.80;;;;;;5;36013823;39015066;-90
2021/07/19 16:01:50;;;;;;;;;;;32.30;47.30;;;;;;5;36013666;39016805;-90
2021/07/19 16:05:03;;;;;;;;;;;32.20;46.40;;;;;;5;36013998;39015706;-90
2021/07/19 16:08:16;;;;;;;;;;;32.00;46.70;;;;;;5;36014276;39015113;-90
2021/07/19 16:11:26;;;;;;;;;;;31.90;46.90;;;;;;5;36013630;39015732;-90
2021/07/19 16:14:38;;;;;;;;;;;31.60;48.20;;;;;;5;36013162;39015018;-90
2021/07/19 16:17:51;;;;;;;;;;;31.50;48.00;;;;;;5;36012958;39015677;-91
2021/07/19 16:21:04;;;;;;;;;;;31.20;49.10;;;;;;5;36014212;39016787;-91
2021/07/19 16:24:14;;;;;;;;;;;31.10;48.50;;;;;;5;36014263;39016126;-90
2021/07/19 16:27:28;;;;;;;;;;;30.90;48.10;;;;;;5;36013103;39765093;-90
2021/07/19 16:30:40;;;;;;;;;;;30.80;49.10;;;;;;5;36015820;39016280;-91
2021/07/19 16:33:53;;;;;;;;;;;30.70;48.80;;;;;;5;36013523;39016273;-90
2021/07/19 16:37:05;;;;;;;;;;;30.60;49.80;;;;;;5;36013987;39016457;-91
2021/07/19 16:40:17;;;;;;;;;;;30.40;50.50;;;;;;5;36013139;39015551;-90
2021/07/19 16:43:30;;;;;;;;;;;30.20;51.00;;;;;;5;36013137;39016661;-90
2021/07/19 16:46:43;;;;;;;;;;;30.10;50.90;;;;;;5;36013731;39016388;-91
2021/07/19 16:49:52;;;;;;;;;;;29.90;51.90;;;;;;5;36014502;39015335;-90
2021/07/19 16:53:06;;;;;;;;;;;29.80;51.70;;;;;;5;36013177;39015224;-89
2021/07/19 16:56:19;;;;;;;;;;;29.70;52.60;;;;;;5;36013576;39015737;-90
2021/07/19 16:59:33;;;;;;;;;;;29.50;52.00;;;;;;5;36014286;39764937;-90
2021/07/19 17:02:42;;;;;;;;;;;29.50;52.60;;;;;;5;36013202;39015567;-90
2021/07/19 17:05:55;;;;;;;;;;;29.30;52.30;;;;;;5;36013775;39015337;-90
2021/07/19 17:09:08;;;;;;;;;;;29.20;52.00;;;;;;5;36014492;39015021;-90
2021/07/19 17:12:20;;;;;;;;;;;29.10;51.00;;;;;;5;36013269;39015543;-89
2021/07/19 17:15:30;;;;;;;;;;;29.00;52.30;;;;;;5;36013554;39015558;-89
2021/07/19 17:18:42;;;;;;;;;;;28.90;52.70;;;;;;5;36012885;39015461;-89
2021/07/19 17:21:55;;;;;;;;;;;28.70;53.40;;;;;;5;36013821;39015903;-90
2021/07/19 17:25:09;;;;;;;;;;;28.50;53.50;;;;;;5;36013515;39015115;-90
2021/07/19 17:28:19;;;;;;;;;;;28.30;54.90;;;;;;5;36013895;39015639;-91
2021/07/19 17:31:33;;;;;;;;;;;28.10;55.00;;;;;;5;36013255;39766210;-90
2021/07/19 17:34:46;;;;;;;;;;;27.90;56.40;;;;;;5;36014049;39015621;-90
2021/07/19 17:38:00;;;;;;;;;;;27.70;57.00;;;;;;5;36013131;39016291;-90
2021/07/19 17:41:09;;;;;;;;;;;27.40;56.80;;;;;;5;36014493;39015127;-90
2021/07/19 17:44:22;;;;;;;;;;;27.20;58.00;;;;;;5;36012869;39015101;-90
2021/07/19 17:47:35;;;;;;;;;;;27.00;58.50;;;;;;5;36013547;39016051;-90
2021/07/19 17:50:47;;;;;;;;;;;26.80;59.40;;;;;;5;36014128;39015805;-90
2021/07/19 17:53:57;;;;;;;;;;;26.70;60.30;;;;;;5;36014356;39015218;-91
2021/07/19 17:57:10;;;;;;;;;;;26.40;60.90;;;;;;5;36012927;39016249;-88
2021/07/19 18:00:23;;;;;;;;;;;26.30;61.50;;;;;;5;36013581;39015632;-90
2021/07/19 18:03:37;;;;;;;;;;;26.10;62.00;;;;;;5;36013705;39764459;-91
2021/07/19 18:06:47;;;;;;;;;;;25.90;63.50;;;;;;5;36013796;39016586;-90
2021/07/19 18:10:00;;;;;;;;;;;25.70;64.70;;;;;;5;36013067;39014778;-90
2021/07/19 18:13:13;;;;;;;;;;;25.60;65.40;;;;;;5;36013572;39014928;-90
2021/07/19 18:16:25;;;;;;;;;;;25.40;65.40;;;;;;5;36013176;39015826;-90
2021/07/19 18:19:35;;;;;;;;;;;25.20;66.40;;;;;;5;36015419;39014966;-90
2021/07/19 18:26:20;;;;;;;;;;;24.90;67.10;;;;;;5;36013263;39015630;-91
2021/07/19 18:33:01;;;;;;;;;;;24.70;67.60;;;;;;5;36013092;39015644;-91
2021/07/19 18:36:15;;;;;;;;;;;24.50;68.00;;;;;;5;36013121;39765441;-91
2021/07/19 18:39:28;;;;;;;;;;;24.40;69.40;;;;;;5;36013523;39016815;-91
2021/07/19 18:42:41;;;;;;;;;;;24.30;69.50;;;;;;5;36013984;39014741;-91
2021/07/19 18:45:52;;;;;;;;;;;24.20;69.30;;;;;;5;36013300;39015965;-90
2021/07/19 18:49:05;;;;;;;;;;;24.10;69.70;;;;;;5;36015070;39016139;-92
2021/07/19 18:52:19;;;;;;;;;;;24.00;70.60;;;;;;5;36013762;39015494;-90
2021/07/19 18:55:32;;;;;;;;;;;23.90;70.10;;;;;;5;36013698;39016954;-90
2021/07/19 18:58:41;;;;;;;;;;;23.80;70.40;;;;;;5;36014761;39015144;-91
2021/07/19 19:01:54;;;;;;;;;;;23.70;70.90;;;;;;5;36012894;39015704;-91
2021/07/19 19:05:10;;;;;;;;;;;23.60;72.00;;;;;;5;36014119;39015843;-90
2021/07/19 19:08:25;;;;;;;;;;;23.60;72.40;;;;;;5;36013822;39764805;-89
2021/07/19 19:11:35;;;;;;;;;;;23.50;72.60;;;;;;5;36013908;39014812;-90
2021/07/19 19:14:49;;;;;;;;;;;23.50;73.10;;;;;;5;36014594;39016172;-91
2021/07/19 19:18:01;;;;;;;;;;;23.40;74.00;;;;;;5;36013118;39015915;-90
2021/07/19 19:21:14;;;;;;;;;;;23.30;74.60;;;;;;5;36013156;39015180;-90
2021/07/19 19:24:24;;;;;;;;;;;23.20;75.40;;;;;;5;36014278;39015717;-90
2021/07/19 19:27:37;;;;;;;;;;;23.10;76.40;;;;;;5;36013166;39015110;-89
2021/07/19 19:30:50;;;;;;;;;;;23.10;76.50;;;;;;5;36014569;39015800;-90
2021/07/19 19:34:02;;;;;;;;;;;23.00;77.00;;;;;;5;36012917;39015752;-90
2021/07/19 19:37:12;;;;;;;;;;;22.90;77.30;;;;;;5;36012940;39016155;-91
2021/07/19 19:40:27;;;;;;;;;;;22.80;77.80;;;;;;5;36013728;39767049;-90
2021/07/19 19:43:41;;;;;;;;;;;22.80;78.80;;;;;;5;36013730;39015979;-90
2021/07/19 19:46:53;;;;;;;;;;;22.70;79.60;;;;;;5;36013524;39015349;-90
2021/07/19 19:50:03;;;;;;;;;;;22.60;80.00;;;;;;5;36013926;39015527;-90
2021/07/19 19:53:16;;;;;;;;;;;22.60;81.30;;;;;;5;36013249;39015666;-90
2021/07/19 19:56:29;;;;;;;;;;;22.60;81.40;;;;;;5;36014938;39015825;-90
2021/07/19 19:59:42;;;;;;;;;;;22.50;81.80;;;;;;5;36013931;39015565;-90
2021/07/19 20:02:51;;;;;;;;;;;22.40;82.40;;;;;;5;36014609;39015206;-90
2021/07/19 20:06:04;;;;;;;;;;;22.40;83.10;;;;;;5;36014387;39015493;-90
2021/07/19 20:09:17;;;;;;;;;;;22.30;84.00;;;;;;5;36013729;39015193;-90
2021/07/19 20:12:31;;;;;;;;;;;22.30;84.70;;;;;;5;36013074;39765686;-90
2021/07/19 20:15:41;;;;;;;;;;;22.30;85.60;;;;;;5;36013072;39015503;-90
2021/07/19 20:18:53;;;;;;;;;;;22.30;87.90;;;;;;5;36015473;39016839;-89
2021/07/19 20:22:06;;;;;;;;;;;22.20;87.30;;;;;;5;36014250;39015050;-90
2021/07/19 20:25:25;;;;;;;;;;;22.20;87.40;;;;;;5;36012965;39016640;-90
2021/07/19 20:28:38;;;;;;;;;;;22.20;88.00;;;;;;5;36013619;39016367;-90
2021/07/19 20:31:51;;;;;;;;;;;22.10;90.00;;;;;;5;36013274;39015876;-90
2021/07/19 20:35:04;;;;;;;;;;;22.10;89.20;;;;;;5;36013424;39015258;-90
2021/07/19 20:38:17;;;;;;;;;;;22.00;90.10;;;;;;5;36015232;39014937;-89
2021/07/19 20:41:26;;;;;;;;;;;22.00;90.50;;;;;;5;36013974;39015738;-90
2021/07/19 20:44:40;;;;;;;;;;;21.90;90.40;;;;;;5;36013242;39768589;-90
2021/07/19 20:47:53;;;;;;;;;;;21.80;90.60;;;;;;5;36012966;39017013;-90
2021/07/19 20:51:06;;;;;;;;;;;21.80;91.10;;;;;;5;36012861;39015195;-90